EDFH/HHN METAR and TAF weather

Enter ICAO airport designator
Station Type Date Time Source
EDFH METAR 2020/09/20 07:50 UTC NOAA

EDFH 200750Z 12008KT CAVOK 14/06 Q1017


Station Type Date Time Source
EDFH Decoded METAR 2020/09/20 07:50 UTC NOAA

Hahn, Germany (EDFH) 49-57N 007-16E 498M
Sep 20, 2020 - 03:50 AM EDT / 2020.09.20 0750 UTC
Wind: from the ESE (120 degrees) at 9 MPH (8 KT):0
Visibility: greater than 7 mile(s):0
Temperature: 57 F (14 C)
Dew Point: 42 F (6 C)
Relative Humidity: 58%
Pressure (altimeter): 30.03 in. Hg (1017 hPa)
ob: EDFH 200750Z 12008KT CAVOK 14/06 Q1017
cycle: 8

Station Type Date Time Source
EDFH TAF 2020/09/20 06:27 UTC NOAA

TAF EDFH 200500Z 2006/2106 12006KT CAVOK
BECMG 2010/2012 06006KT

Example: see airport list